Time;durP1;ratioP1;P1;durP2;ratioP2;P2;SDS_P1;SDS_P2;PMS_P1;PMS_P2;Temp;Humidity;BMP_temperature;BMP_pressure;BME280_temperature;BME280_humidity;BME280_pressure;Samples;Min_cycle;Max_cycle;Signal;HPM_P1;HPM_P2
2022/11/18 00:00:48;;;;;;;22.92;22.10;;;8.00;99.90;;;;;;5028584;28;20030;-76
2022/11/18 00:03:14;;;;;;;21.52;20.73;;;7.90;99.90;;;;;;5031743;28;20032;-76
2022/11/18 00:05:40;;;;;;;22.13;21.33;;;7.90;99.90;;;;;;5054591;28;20036;-75
2022/11/18 00:08:05;;;;;;;22.20;21.40;;;7.90;99.90;;;;;;5053255;28;20013;-75
2022/11/18 00:10:31;;;;;;;24.35;22.80;;;7.90;99.90;;;;;;5046419;28;20025;-76
2022/11/18 00:15:41;;;;;;;22.48;21.67;;;7.90;99.90;;;;;;5043152;28;20029;-76
2022/11/18 00:18:06;;;;;;;22.15;21.35;;;7.90;99.90;;;;;;5052739;28;20025;-76
2022/11/18 00:20:33;;;;;;;23.58;22.67;;;7.90;99.90;;;;;;5024193;28;20124;-76
2022/11/18 00:22:59;;;;;;;24.65;23.75;;;7.90;99.90;;;;;;5047313;28;20037;-76
2022/11/18 00:25:25;;;;;;;22.80;22.00;;;7.80;99.90;;;;;;5045982;28;20435;-76
2022/11/18 00:27:50;;;;;;;21.67;20.88;;;7.90;99.90;;;;;;5022946;28;20047;-75
2022/11/18 00:30:16;;;;;;;21.27;20.48;;;7.80;99.90;;;;;;5024774;28;20501;-76
2022/11/18 00:32:42;;;;;;;23.50;22.60;;;7.80;99.90;;;;;;5029839;28;20026;-77
2022/11/18 00:35:08;;;;;;;23.48;22.58;;;7.80;99.90;;;;;;5045574;28;20534;-76
2022/11/18 00:37:33;;;;;;;24.00;23.10;;;7.80;99.90;;;;;;5022806;28;20021;-76
2022/11/18 00:39:59;;;;;;;23.05;22.23;;;7.90;99.90;;;;;;5042641;28;20086;-75
2022/11/18 00:45:09;;;;;;;23.08;22.27;;;7.90;99.90;;;;;;5053901;28;20639;-76
2022/11/18 00:47:34;;;;;;;24.38;23.48;;;7.80;99.90;;;;;;5033928;28;20033;-76
2022/11/18 00:50:00;;;;;;;23.30;22.40;;;7.80;99.90;;;;;;5048229;28;20029;-76
2022/11/18 00:52:25;;;;;;;22.17;21.38;;;7.80;99.90;;;;;;5047611;28;20030;-77
2022/11/18 00:54:51;;;;;;;22.17;21.38;;;7.80;99.90;;;;;;5047014;28;20083;-76
2022/11/18 00:57:16;;;;;;;22.58;21.77;;;7.80;99.90;;;;;;5022432;28;20071;-76
2022/11/18 00:59:42;;;;;;;22.83;22.02;;;7.80;99.90;;;;;;5040756;28;20085;-76
2022/11/18 01:02:07;;;;;;;22.52;21.73;;;7.80;99.90;;;;;;5047146;28;20041;-76
2022/11/18 01:04:33;;;;;;;23.15;22.30;;;7.80;99.90;;;;;;5045971;28;20044;-76
2022/11/18 01:06:58;;;;;;;23.15;22.35;;;7.80;99.90;;;;;;5040020;28;20032;-76
2022/11/18 01:09:24;;;;;;;22.38;21.58;;;7.90;99.90;;;;;;5043789;28;20033;-76
2022/11/18 01:14:34;;;;;;;22.30;21.50;;;7.90;99.90;;;;;;5051142;28;20394;-75
2022/11/18 01:16:59;;;;;;;22.13;21.33;;;7.80;99.90;;;;;;5042501;28;20025;-75
2022/11/18 01:19:25;;;;;;;22.15;21.35;;;7.90;99.90;;;;;;5022098;28;20032;-76
2022/11/18 01:21:50;;;;;;;24.73;23.83;;;7.90;99.90;;;;;;5053254;28;20029;-76
2022/11/18 01:24:16;;;;;;;22.60;21.80;;;7.80;99.90;;;;;;5032836;28;20246;-76
2022/11/18 01:26:42;;;;;;;22.95;22.15;;;7.90;99.90;;;;;;5024453;28;20028;-75
2022/11/18 01:29:08;;;;;;;21.73;20.92;;;7.90;99.90;;;;;;5021767;28;20064;-76
2022/11/18 01:31:33;;;;;;;24.05;23.15;;;7.90;99.90;;;;;;5026237;28;20022;-76
2022/11/18 01:33:59;;;;;;;23.63;22.73;;;7.90;99.90;;;;;;5046266;28;20023;-76
2022/11/18 01:36:26;;;;;;;23.70;22.80;;;7.90;99.90;;;;;;5024219;28;20021;-76
2022/11/18 01:38:53;;;;;;;21.98;21.17;;;7.90;99.90;;;;;;5039190;28;20049;-75
2022/11/18 01:41:21;;;;;;;22.70;21.90;;;7.90;99.90;;;;;;5043717;28;20029;-76
2022/11/18 01:43:58;;;;;;;24.40;23.50;;;7.90;99.90;;;;;;5048867;28;20029;-76
2022/11/18 01:46:26;;;;;;;24.30;23.40;;;7.90;99.90;;;;;;5034946;28;20029;-76
2022/11/18 01:49:13;;;;;;;22.33;21.52;;;7.90;99.90;;;;;;5047890;28;20040;-76
2022/11/18 01:51:49;;;;;;;;;;;7.90;99.90;;;;;;5047093;28;20060;-76
2022/11/18 01:54:20;;;;;;;26.48;25.48;;;7.90;99.90;;;;;;5051213;28;20343;-76
2022/11/18 01:56:50;;;;;;;31.60;29.58;;;7.90;99.90;;;;;;5021573;28;20041;-76
2022/11/18 01:59:21;;;;;;;25.05;24.15;;;8.00;99.90;;;;;;5042750;28;20061;-76
2022/11/18 02:01:48;;;;;;;24.05;23.15;;;8.00;99.90;;;;;;5028353;28;20136;-76
2022/11/18 02:04:14;;;;;;;23.05;22.23;;;7.80;99.90;;;;;;5025269;28;20108;-76
2022/11/18 02:06:41;;;;;;;22.05;21.25;;;7.80;99.90;;;;;;5039385;28;20029;-76
2022/11/18 02:09:07;;;;;;;22.00;21.20;;;7.80;99.90;;;;;;5023977;28;20511;-77
2022/11/18 02:11:52;;;;;;;24.00;23.10;;;7.80;99.90;;;;;;5052326;28;20064;-77
2022/11/18 02:14:28;;;;;;;23.47;22.57;;;7.80;99.90;;;;;;5051876;28;20075;-77
2022/11/18 02:17:05;;;;;;;22.42;21.63;;;7.90;99.90;;;;;;5040696;28;20045;-76
2022/11/18 02:19:49;;;;;;;23.23;22.38;;;7.90;99.90;;;;;;5048901;28;20037;-76
2022/11/18 02:22:39;;;;;;;24.35;23.45;;;7.90;99.90;;;;;;5044881;28;20092;-75
2022/11/18 02:25:29;;;;;;;21.75;20.95;;;8.00;99.90;;;;;;5041595;28;20155;-75
2022/11/18 02:28:20;;;;;;;21.30;20.50;;;8.00;99.90;;;;;;5045727;28;20037;-75
2022/11/18 02:31:02;;;;;;;22.10;21.30;;;7.90;99.90;;;;;;5045334;28;20057;-75
2022/11/18 02:33:56;;;;;;;22.23;21.42;;;7.90;99.90;;;;;;5043744;28;20025;-75
2022/11/18 02:36:31;;;;;;;21.20;20.40;;;7.80;99.90;;;;;;5033655;28;20035;-76
2022/11/18 02:39:04;;;;;;;21.42;20.63;;;7.80;99.90;;;;;;5048002;28;20021;-76
2022/11/18 02:41:31;;;;;;;22.63;21.83;;;7.70;99.90;;;;;;5043383;28;20068;-75
2022/11/18 02:44:14;;;;;;;22.50;21.70;;;7.60;99.90;;;;;;5037762;28;20033;-76
2022/11/18 02:46:44;;;;;;;22.20;21.40;;;7.70;99.90;;;;;;5020643;28;20056;-75
2022/11/18 02:49:20;;;;;;;22.00;21.20;;;7.80;99.90;;;;;;5026333;28;20045;-75
2022/11/18 02:51:47;;;;;;;22.73;21.92;;;7.70;99.90;;;;;;5029334;28;20032;-75
2022/11/18 02:54:15;;;;;;;22.10;21.30;;;7.80;99.90;;;;;;5051715;28;20123;-76
2022/11/18 02:56:42;;;;;;;21.13;20.33;;;7.80;99.90;;;;;;5038654;28;20018;-75
2022/11/18 02:59:08;;;;;;;23.10;22.27;;;7.80;99.90;;;;;;5042504;28;20056;-75
2022/11/18 03:01:35;;;;;;;21.38;20.58;;;7.80;99.90;;;;;;5045338;28;20025;-75
2022/11/18 03:04:01;;;;;;;21.30;20.50;;;7.80;99.90;;;;;;5023302;28;20029;-76
2022/11/18 03:06:38;;;;;;;21.10;20.30;;;7.70;99.90;;;;;;5038337;28;20098;-76
2022/11/18 03:09:16;;;;;;;20.83;20.02;;;7.80;99.90;;;;;;5051578;28;20087;-76
2022/11/18 03:11:52;;;;;;;22.20;21.40;;;7.90;99.90;;;;;;5065467;28;20382;-75
2022/11/18 03:14:29;;;;;;;22.48;21.67;;;7.90;99.90;;;;;;5033712;28;20021;-74
2022/11/18 03:17:02;;;;;;;21.83;21.02;;;7.90;99.90;;;;;;5022944;28;20433;-75
2022/11/18 03:19:45;;;;;;;19.90;19.20;;;7.80;99.90;;;;;;5052859;28;20502;-75
2022/11/18 03:22:15;;;;;;;20.98;20.17;;;7.80;99.90;;;;;;5051381;28;20088;-76
2022/11/18 03:24:48;;;;;;;20.63;19.85;;;7.80;99.90;;;;;;5055682;23;20042;-73
2022/11/18 03:27:24;;;;;;;20.38;19.67;;;7.80;99.90;;;;;;5034652;28;20083;-73
2022/11/18 03:30:06;;;;;;;21.35;20.55;;;7.80;99.90;;;;;;5023452;28;20060;-73
2022/11/18 03:32:37;;;;;;;20.52;19.75;;;7.80;99.90;;;;;;5020575;28;20107;-74
2022/11/18 03:35:09;;;;;;;20.45;19.73;;;7.80;99.90;;;;;;5013278;28;20025;-74
2022/11/18 03:37:37;;;;;;;19.45;18.75;;;7.70;99.90;;;;;;5030924;28;20053;-73
2022/11/18 03:40:10;;;;;;;20.15;19.45;;;7.70;99.90;;;;;;5031267;28;20108;-74
2022/11/18 03:42:45;;;;;;;21.05;20.25;;;7.80;99.90;;;;;;5031197;28;20109;-74
2022/11/18 03:45:25;;;;;;;20.73;19.92;;;7.80;99.90;;;;;;5031331;28;20426;-73
2022/11/18 03:48:00;;;;;;;19.50;18.80;;;7.90;99.90;;;;;;5013446;28;20067;-73
2022/11/18 03:50:30;;;;;;;19.10;18.40;;;7.90;99.90;;;;;;5030945;28;20041;-73
2022/11/18 03:52:56;;;;;;;19.42;18.73;;;7.80;99.90;;;;;;5031015;28;20021;-73
2022/11/18 03:55:25;;;;;;;19.90;19.20;;;7.90;99.90;;;;;;5032096;28;20032;-73
2022/11/18 03:57:51;;;;;;;19.92;19.23;;;7.80;99.90;;;;;;5034698;28;20057;-73
2022/11/18 04:00:19;;;;;;;19.40;18.70;;;7.90;99.90;;;;;;5034681;28;20580;-73
2022/11/18 04:02:46;;;;;;;19.55;18.85;;;7.70;99.90;;;;;;5016789;28;20402;-73
2022/11/18 04:05:13;;;;;;;18.83;18.13;;;7.60;99.90;;;;;;5034614;28;20103;-73
2022/11/18 04:07:55;;;;;;;19.20;18.50;;;7.60;99.90;;;;;;5034524;28;20022;-73
2022/11/18 04:10:34;;;;;;;19.17;18.48;;;7.70;99.90;;;;;;5034251;28;20025;-73
2022/11/18 04:13:16;;;;;;;19.80;19.10;;;7.70;99.90;;;;;;5013645;28;20118;-72
2022/11/18 04:15:42;;;;;;;19.30;18.60;;;7.80;99.90;;;;;;5034483;28;20032;-72
2022/11/18 04:18:09;;;;;;;19.88;19.17;;;7.80;99.90;;;;;;5034115;28;20021;-72
2022/11/18 04:20:36;;;;;;;20.65;19.92;;;7.80;99.90;;;;;;5034281;28;20106;-72
2022/11/18 04:23:02;;;;;;;20.20;19.50;;;7.90;99.90;;;;;;5016329;28;20502;-72
2022/11/18 04:25:28;;;;;;;20.58;19.80;;;8.00;99.90;;;;;;5034430;28;20086;-72
2022/11/18 04:27:54;;;;;;;21.08;20.27;;;7.90;99.90;;;;;;5034118;28;20100;-72
2022/11/18 04:30:19;;;;;;;20.00;19.30;;;7.90;99.90;;;;;;5034573;28;20028;-72
2022/11/18 04:32:45;;;;;;;21.00;20.20;;;7.90;99.90;;;;;;5034158;28;20030;-72
2022/11/18 04:35:11;;;;;;;21.63;20.83;;;7.90;99.90;;;;;;5016483;28;20017;-72
2022/11/18 04:37:37;;;;;;;19.45;18.75;;;7.90;99.90;;;;;;5016215;28;20048;-73
2022/11/18 04:40:03;;;;;;;19.60;18.90;;;7.90;99.90;;;;;;5034370;28;20029;-73
2022/11/18 04:42:28;;;;;;;19.85;19.15;;;7.80;99.90;;;;;;5034146;28;20032;-72
2022/11/18 04:44:54;;;;;;;19.02;18.33;;;7.70;99.90;;;;;;5034134;28;20391;-72
2022/11/18 04:47:20;;;;;;;22.65;21.85;;;7.80;99.90;;;;;;5033857;28;20025;-72
2022/11/18 04:49:45;;;;;;;20.35;19.65;;;7.80;99.90;;;;;;5033797;28;20029;-74
2022/11/18 04:52:11;;;;;;;26.35;24.60;;;7.80;99.90;;;;;;5034075;28;20113;-73
2022/11/18 04:54:36;;;;;;;21.75;20.95;;;7.70;99.90;;;;;;5033764;28;20032;-73
2022/11/18 04:57:02;;;;;;;21.42;20.63;;;7.80;99.90;;;;;;5033592;28;20506;-73
2022/11/18 04:59:29;;;;;;;19.95;19.25;;;7.80;99.90;;;;;;5033777;28;20032;-73
2022/11/18 05:01:55;;;;;;;22.35;21.55;;;7.80;99.90;;;;;;5033712;28;20056;-72
2022/11/18 05:04:23;;;;;;;20.45;19.75;;;7.70;99.90;;;;;;5033565;28;20029;-73
2022/11/18 05:06:49;;;;;;;21.05;20.25;;;7.70;99.90;;;;;;5019274;28;20029;-73
2022/11/18 05:09:16;;;;;;;20.13;19.42;;;7.70;99.90;;;;;;5033531;28;20171;-73
2022/11/18 05:14:27;;;;;;;21.40;20.60;;;7.80;99.90;;;;;;5033374;28;20505;-73
2022/11/18 05:16:54;;;;;;;21.85;21.05;;;7.90;99.90;;;;;;5033201;28;20034;-73
2022/11/18 05:19:19;;;;;;;19.50;18.80;;;7.90;99.90;;;;;;5033237;28;20025;-73
2022/11/18 05:21:45;;;;;;;21.88;21.08;;;8.00;99.90;;;;;;5033277;28;20411;-73
2022/11/18 05:24:10;;;;;;;20.33;19.63;;;8.00;99.90;;;;;;5033041;28;20045;-73
2022/11/18 05:26:36;;;;;;;19.80;19.10;;;8.00;99.90;;;;;;5032421;28;20037;-73
2022/11/18 05:29:02;;;;;;;20.90;20.10;;;8.00;99.90;;;;;;5017015;28;20112;-75
2022/11/18 05:31:28;;;;;;;19.63;18.92;;;8.00;99.90;;;;;;5033075;28;20052;-72
2022/11/18 05:33:54;;;;;;;20.25;19.52;;;8.00;99.90;;;;;;5032894;28;20029;-71
2022/11/18 05:36:20;;;;;;;21.05;20.25;;;8.00;99.90;;;;;;5033130;28;20033;-71
2022/11/18 05:38:45;;;;;;;20.73;19.92;;;8.00;99.90;;;;;;5032808;28;20026;-71
2022/11/18 05:43:57;;;;;;;20.02;19.33;;;8.00;99.90;;;;;;5032855;28;20060;-73
2022/11/18 05:46:22;;;;;;;19.17;18.48;;;8.00;99.90;;;;;;5032754;28;20071;-72
2022/11/18 05:48:48;;;;;;;21.17;20.38;;;8.00;99.90;;;;;;5032764;28;20025;-72
2022/11/18 05:51:13;;;;;;;22.90;22.10;;;8.00;99.90;;;;;;5032782;28;20032;-72
2022/11/18 05:53:39;;;;;;;21.15;20.35;;;7.90;99.90;;;;;;5032538;28;20068;-72
2022/11/18 05:56:16;;;;;;;21.95;21.15;;;7.80;99.90;;;;;;5014941;28;20026;-72
2022/11/18 05:58:41;;;;;;;21.30;20.50;;;7.80;99.90;;;;;;5032445;28;20033;-72
2022/11/18 06:01:08;;;;;;;21.10;20.30;;;7.80;99.90;;;;;;5014824;28;20021;-72
2022/11/18 06:03:38;;;;;;;21.42;20.63;;;7.80;99.90;;;;;;5019231;28;20033;-73
2022/11/18 06:06:06;;;;;;;22.30;21.50;;;7.80;99.90;;;;;;5032378;28;20076;-72
2022/11/18 06:08:39;;;;;;;22.45;21.55;;;7.80;99.90;;;;;;5032027;28;20064;-71
2022/11/18 06:11:07;;;;;;;21.50;20.65;;;7.80;99.90;;;;;;5032297;28;20544;-72
2022/11/18 06:13:39;;;;;;;20.85;20.08;;;7.80;99.90;;;;;;5014380;28;20034;-72
2022/11/18 06:16:05;;;;;;;22.80;21.88;;;7.80;99.90;;;;;;5032186;28;20423;-72
2022/11/18 06:18:31;;;;;;;21.65;20.85;;;7.90;99.90;;;;;;5013589;28;20029;-73
2022/11/18 06:21:02;;;;;;;23.75;22.85;;;7.90;99.90;;;;;;5031979;28;20475;-72
2022/11/18 06:23:32;;;;;;;22.92;22.13;;;7.90;99.90;;;;;;5032054;28;20561;-73
2022/11/18 06:25:58;;;;;;;24.42;23.52;;;8.00;99.90;;;;;;5031838;28;20025;-72
2022/11/18 06:28:24;;;;;;;22.42;21.63;;;8.00;99.90;;;;;;5031955;28;20368;-72
2022/11/18 06:30:50;;;;;;;21.95;21.15;;;8.00;99.90;;;;;;5031876;28;20502;-72
2022/11/18 06:33:15;;;;;;;23.40;22.50;;;8.10;99.90;;;;;;5031772;28;20033;-72
2022/11/18 06:35:42;;;;;;;22.20;21.40;;;8.10;99.90;;;;;;5031922;28;20029;-72
2022/11/18 06:38:07;;;;;;;22.10;21.30;;;8.10;99.90;;;;;;5031615;28;20415;-72
2022/11/18 06:40:34;;;;;;;21.50;20.70;;;8.00;99.90;;;;;;5031066;28;20033;-72
2022/11/18 06:48:35;;;;;;;20.92;20.13;;;8.10;99.90;;;;;;5030951;28;20087;-72
2022/11/18 06:51:06;;;;;;;20.23;19.50;;;7.90;99.90;;;;;;5031558;28;20136;-72
2022/11/18 06:53:33;;;;;;;21.35;20.55;;;7.80;99.90;;;;;;5031646;28;20072;-72
2022/11/18 06:56:03;;;;;;;21.65;20.85;;;7.80;99.90;;;;;;5031636;28;20021;-72
2022/11/18 06:58:28;;;;;;;21.92;21.13;;;7.70;99.90;;;;;;5031528;28;20024;-72
2022/11/18 07:00:54;;;;;;;22.73;21.92;;;7.80;99.90;;;;;;5013907;28;20030;-72
2022/11/18 07:03:19;;;;;;;24.67;23.77;;;7.80;99.90;;;;;;5031434;28;20635;-72
2022/11/18 07:05:45;;;;;;;23.30;22.40;;;7.80;99.90;;;;;;5031541;28;20030;-72
2022/11/18 07:08:10;;;;;;;23.60;22.70;;;7.80;99.90;;;;;;5031664;28;20036;-72
2022/11/18 07:10:36;;;;;;;24.55;23.65;;;7.80;99.90;;;;;;5031491;28;20056;-71
2022/11/18 07:13:01;;;;;;;23.85;22.95;;;7.80;99.90;;;;;;5031505;28;20061;-72
2022/11/18 07:15:27;;;;;;;24.75;23.77;;;7.90;99.90;;;;;;5031629;28;20030;-73
2022/11/18 07:17:52;;;;;;;22.35;21.55;;;7.80;99.90;;;;;;5030898;28;20104;-72
2022/11/18 07:20:18;;;;;;;22.48;21.67;;;7.80;99.90;;;;;;5031320;28;20032;-73
2022/11/18 07:22:43;;;;;;;24.85;23.77;;;7.80;99.90;;;;;;5031100;28;20053;-73
2022/11/18 07:25:09;;;;;;;23.38;22.48;;;7.80;99.90;;;;;;5013794;28;20379;-73
2022/11/18 07:27:34;;;;;;;21.67;20.88;;;7.80;99.90;;;;;;5031003;28;20382;-73
2022/11/18 07:30:00;;;;;;;23.17;22.33;;;7.80;99.90;;;;;;5031705;28;20033;-73
2022/11/18 07:32:25;;;;;;;21.83;21.02;;;7.80;99.90;;;;;;5035144;28;20026;-73
2022/11/18 07:34:51;;;;;;;22.40;21.60;;;7.80;99.90;;;;;;5035177;28;20443;-73
2022/11/18 07:37:16;;;;;;;18.40;17.70;;;7.80;99.90;;;;;;5035001;28;20017;-72
2022/11/18 07:39:42;;;;;;;19.08;18.38;;;7.80;99.90;;;;;;5017375;28;20025;-73
2022/11/18 07:42:08;;;;;;;20.42;19.67;;;7.70;99.90;;;;;;5017304;28;20036;-73
2022/11/18 07:44:34;;;;;;;20.10;19.40;;;7.80;99.90;;;;;;5034923;28;20083;-72
2022/11/18 07:46:59;;;;;;;20.83;20.08;;;7.80;99.90;;;;;;5016877;28;20025;-73
2022/11/18 07:49:25;;;;;;;21.00;20.20;;;7.80;99.90;;;;;;5017011;28;20033;-74
2022/11/18 07:51:50;;;;;;;19.10;18.40;;;7.80;99.90;;;;;;5034863;28;20026;-74
2022/11/18 07:54:16;;;;;;;21.02;20.13;;;7.80;99.90;;;;;;5017023;28;20022;-73
2022/11/18 07:56:42;;;;;;;18.88;18.17;;;7.80;99.90;;;;;;5034724;28;20025;-73
2022/11/18 07:59:08;;;;;;;20.83;20.02;;;7.80;99.90;;;;;;5034572;28;20058;-73
2022/11/18 08:01:34;;;;;;;19.17;18.48;;;7.90;99.90;;;;;;5034609;28;20076;-74
2022/11/18 08:04:08;;;;;;;19.35;18.65;;;7.90;99.90;;;;;;5034652;28;20033;-74
2022/11/18 08:06:34;;;;;;;19.83;19.13;;;7.90;99.90;;;;;;5034592;28;20030;-74
2022/11/18 08:09:00;;;;;;;22.10;21.15;;;7.90;99.90;;;;;;5016676;28;20029;-74
2022/11/18 08:11:25;;;;;;;19.70;19.00;;;7.90;99.90;;;;;;5034454;28;20032;-74
2022/11/18 08:13:51;;;;;;;19.70;19.00;;;7.90;99.90;;;;;;5034462;28;20029;-73
2022/11/18 08:16:20;;;;;;;19.27;18.58;;;7.90;99.90;;;;;;5034669;28;20325;-73
2022/11/18 08:18:46;;;;;;;28.92;27.08;;;7.90;99.90;;;;;;5034092;28;20021;-74
2022/11/18 08:21:13;;;;;;;18.60;17.90;;;7.90;99.90;;;;;;5034408;28;20030;-73
2022/11/18 08:23:39;;;;;;;19.88;19.08;;;7.90;99.90;;;;;;5016480;28;20068;-73
2022/11/18 08:26:12;;;;;;;20.17;19.48;;;8.00;99.90;;;;;;5034472;28;20033;-73
2022/11/18 08:28:37;;;;;;;21.08;20.27;;;7.90;99.90;;;;;;5034105;28;20185;-73
2022/11/18 08:31:16;;;;;;;18.95;18.25;;;7.90;99.90;;;;;;5034125;28;20488;-73
2022/11/18 08:33:42;;;;;;;19.00;18.30;;;7.90;99.90;;;;;;5034340;28;20040;-74
2022/11/18 08:36:10;;;;;;;24.52;23.42;;;7.90;99.90;;;;;;5034254;28;20026;-74
2022/11/18 08:38:36;;;;;;;21.20;20.40;;;7.90;99.90;;;;;;5003115;28;20109;-74
2022/11/18 08:41:02;;;;;;;22.08;21.27;;;7.90;99.90;;;;;;5034055;28;20030;-73
2022/11/18 08:43:28;;;;;;;21.55;20.75;;;7.90;99.90;;;;;;5019666;28;20026;-73
2022/11/18 08:45:54;;;;;;;21.50;20.70;;;7.90;99.90;;;;;;5026937;28;20088;-74
2022/11/18 08:48:19;;;;;;;21.95;21.15;;;7.90;99.90;;;;;;5027431;28;20025;-74
2022/11/18 08:50:45;;;;;;;21.10;20.30;;;8.00;99.90;;;;;;5020880;28;20037;-74
2022/11/18 08:53:10;;;;;;;22.77;21.98;;;8.00;99.90;;;;;;5020447;28;20033;-74
2022/11/18 08:55:36;;;;;;;21.60;20.80;;;8.00;99.90;;;;;;5009486;28;20026;-74
2022/11/18 08:58:01;;;;;;;23.30;22.40;;;8.00;99.90;;;;;;5033367;28;20033;-75
2022/11/18 09:00:27;;;;;;;22.38;21.58;;;8.00;99.90;;;;;;5033557;28;20034;-75
2022/11/18 09:02:52;;;;;;;22.70;21.90;;;8.10;99.90;;;;;;5033648;28;20079;-75
2022/11/18 09:05:18;;;;;;;22.42;21.63;;;8.00;99.90;;;;;;5033657;28;20025;-74
2022/11/18 09:07:43;;;;;;;22.70;21.90;;;8.00;99.90;;;;;;5033385;28;20471;-75
2022/11/18 09:10:09;;;;;;;20.58;19.73;;;8.00;99.90;;;;;;5033480;28;20095;-75
2022/11/18 09:12:34;;;;;;;19.80;19.10;;;8.00;99.90;;;;;;5033427;28;20104;-75
2022/11/18 09:15:00;;;;;;;20.15;19.33;;;8.00;99.90;;;;;;5033395;28;20060;-74
2022/11/18 09:17:25;;;;;;;23.25;22.35;;;8.00;99.90;;;;;;5033268;28;20022;-75
2022/11/18 09:19:51;;;;;;;22.45;21.60;;;8.00;99.90;;;;;;5033326;28;20022;-75
2022/11/18 09:22:16;;;;;;;20.42;19.70;;;8.00;99.90;;;;;;5015731;28;20032;-77
2022/11/18 09:24:43;;;;;;;21.58;20.77;;;8.00;99.90;;;;;;5015829;28;20076;-76
2022/11/18 09:27:09;;;;;;;21.67;20.88;;;8.10;99.90;;;;;;5015304;28;20502;-76
2022/11/18 09:29:34;;;;;;;23.48;22.58;;;8.10;99.90;;;;;;5033022;28;20021;-76
2022/11/18 09:32:01;;;;;;;23.17;22.33;;;8.10;99.90;;;;;;5033099;28;20025;-76
2022/11/18 09:34:27;;;;;;;22.63;21.83;;;8.10;99.90;;;;;;5032742;28;20398;-76
2022/11/18 09:36:55;;;;;;;22.88;22.08;;;8.10;99.90;;;;;;5015016;28;20101;-76
2022/11/18 09:39:24;;;;;;;24.40;23.50;;;8.10;99.90;;;;;;5033015;28;20040;-76
2022/11/18 09:42:11;;;;;;;24.58;23.67;;;8.10;99.90;;;;;;5032675;28;20741;-75
2022/11/18 09:45:02;;;;;;;24.63;23.63;;;8.10;99.90;;;;;;5032707;28;20499;-75
2022/11/18 09:47:31;;;;;;;24.17;23.27;;;8.20;99.90;;;;;;5003967;28;20159;-74
2022/11/18 09:50:00;;;;;;;24.27;23.27;;;8.20;99.90;;;;;;5032605;28;20024;-74
2022/11/18 09:52:31;;;;;;;24.65;23.63;;;8.20;99.90;;;;;;5019670;28;20415;-75
2022/11/18 09:54:58;;;;;;;27.58;26.20;;;8.30;99.90;;;;;;5014815;28;20032;-75
2022/11/18 09:57:30;;;;;;;24.67;23.77;;;8.30;99.90;;;;;;5032313;28;20036;-75
2022/11/18 09:59:57;;;;;;;26.38;25.27;;;8.30;99.90;;;;;;5014841;28;20062;-75
2022/11/18 10:02:25;;;;;;;23.80;22.90;;;8.30;99.90;;;;;;5014830;28;20029;-75
2022/11/18 10:04:53;;;;;;;27.08;25.98;;;8.30;99.90;;;;;;5032246;28;20029;-75
2022/11/18 10:07:25;;;;;;;25.10;24.20;;;8.40;99.90;;;;;;5032244;28;20030;-74
2022/11/18 10:09:54;;;;;;;26.05;24.95;;;8.40;99.90;;;;;;5032288;28;20026;-74
2022/11/18 10:12:34;;;;;;;28.33;27.20;;;8.40;99.90;;;;;;5014582;28;20025;-75
2022/11/18 10:15:08;;;;;;;26.30;25.30;;;8.40;99.90;;;;;;5014436;28;20076;-74
2022/11/18 10:17:42;;;;;;;25.85;24.73;;;8.50;99.90;;;;;;5032001;28;20021;-75
2022/11/18 10:20:26;;;;;;;28.67;27.38;;;8.50;99.90;;;;;;5032195;28;20084;-75
2022/11/18 10:22:56;;;;;;;26.10;25.10;;;8.50;99.90;;;;;;5031811;28;20025;-75
2022/11/18 10:25:23;;;;;;;27.60;26.30;;;8.50;99.90;;;;;;5014346;28;20032;-75
2022/11/18 10:27:49;;;;;;;25.30;24.30;;;8.50;99.90;;;;;;5013996;28;20033;-75
2022/11/18 10:30:17;;;;;;;24.02;23.02;;;8.50;99.90;;;;;;5032023;28;20529;-74
2022/11/18 10:33:20;;;;;;;30.80;29.60;;;8.50;99.90;;;;;;5018744;28;20117;-75
2022/11/18 10:35:47;;;;;;;29.77;27.83;;;8.50;99.90;;;;;;5019265;28;20057;-75
2022/11/18 10:38:12;;;;;;;25.13;24.02;;;8.50;99.90;;;;;;5031732;28;20096;-75
2022/11/18 10:40:56;;;;;;;28.52;27.27;;;8.50;99.90;;;;;;5013977;28;20034;-74
2022/11/18 10:43:43;;;;;;;29.50;28.30;;;8.50;99.90;;;;;;5031840;28;20108;-74
2022/11/18 10:46:38;;;;;;;27.63;26.63;;;8.50;99.90;;;;;;5021117;28;20029;-73
2022/11/18 10:49:09;;;;;;;29.35;28.20;;;8.60;99.90;;;;;;5031455;28;20033;-73
2022/11/18 10:51:44;;;;;;;25.77;24.67;;;8.60;99.90;;;;;;5014097;28;20064;-74
2022/11/18 10:54:19;;;;;;;28.33;27.23;;;8.60;99.90;;;;;;5013830;28;20025;-74
2022/11/18 10:56:46;;;;;;;28.60;27.50;;;8.60;99.90;;;;;;5016518;28;20025;-74
2022/11/18 10:59:40;;;;;;;30.92;29.73;;;8.70;99.90;;;;;;5025284;28;20032;-74
2022/11/18 11:02:18;;;;;;;26.95;25.83;;;8.80;99.90;;;;;;5031620;28;20021;-74
2022/11/18 11:04:46;;;;;;;29.33;28.23;;;8.80;99.90;;;;;;5030979;28;20052;-73
2022/11/18 11:07:31;;;;;;;28.63;27.52;;;8.90;99.90;;;;;;5030912;28;20017;-74
2022/11/18 11:10:05;;;;;;;30.00;28.90;;;8.90;99.90;;;;;;5016463;28;20380;-74
2022/11/18 11:12:37;;;;;;;30.27;29.17;;;8.80;99.90;;;;;;5024094;28;20043;-74
2022/11/18 11:15:08;;;;;;;27.27;26.27;;;8.90;99.90;;;;;;5031520;28;20087;-74
2022/11/18 11:20:47;;;;;;;29.33;28.23;;;8.80;99.90;;;;;;5031498;28;20075;-74
2022/11/18 11:23:14;;;;;;;29.35;28.25;;;8.70;99.90;;;;;;5031177;28;20042;-75
2022/11/18 11:25:52;;;;;;;28.92;27.83;;;8.70;99.90;;;;;;5013707;28;20021;-73
2022/11/18 11:28:33;;;;;;;27.35;26.23;;;8.70;99.90;;;;;;5013058;28;20033;-73
2022/11/18 11:31:16;;;;;;;25.73;24.52;;;8.70;99.90;;;;;;5031288;28;20055;-72
2022/11/18 11:33:42;;;;;;;26.40;25.35;;;8.80;99.90;;;;;;5018600;28;20460;-73
2022/11/18 11:36:43;;;;;;;27.20;25.52;;;8.80;99.90;;;;;;5027566;28;20024;-73
2022/11/18 11:39:39;;;;;;;25.90;24.90;;;8.80;99.90;;;;;;5010527;28;20026;-74
2022/11/18 11:42:23;;;;;;;29.48;27.17;;;8.80;99.90;;;;;;5026011;28;20026;-73
2022/11/18 11:44:59;;;;;;;24.17;23.27;;;8.80;99.90;;;;;;5020871;28;20033;-73
2022/11/18 11:47:46;;;;;;;26.80;25.80;;;8.80;99.90;;;;;;5030613;28;20026;-73
2022/11/18 11:50:18;;;;;;;27.33;26.25;;;8.80;99.90;;;;;;5031003;28;20079;-73
2022/11/18 11:52:52;;;;;;;24.42;23.52;;;8.80;99.90;;;;;;5013270;28;20021;-73
2022/11/18 11:55:46;;;;;;;25.73;24.73;;;8.80;99.90;;;;;;5013250;28;20112;-73
2022/11/18 11:58:12;;;;;;;25.35;24.45;;;8.90;99.90;;;;;;5017039;28;20467;-74
2022/11/18 12:00:51;;;;;;;23.02;21.95;;;9.00;99.90;;;;;;5030899;28;20061;-73
2022/11/18 12:03:42;;;;;;;22.02;21.13;;;9.10;99.90;;;;;;5030876;28;20026;-73
2022/11/18 12:06:09;;;;;;;27.45;26.45;;;9.10;99.90;;;;;;5013107;28;20399;-73
2022/11/18 12:08:37;;;;;;;26.25;25.25;;;9.20;99.90;;;;;;5017141;28;20030;-73
2022/11/18 12:11:16;;;;;;;26.33;25.33;;;9.20;99.90;;;;;;5031028;28;20483;-73
2022/11/18 12:13:52;;;;;;;25.00;23.95;;;9.10;99.90;;;;;;5030833;28;20041;-73
2022/11/18 12:16:39;;;;;;;29.73;28.52;;;9.00;99.90;;;;;;5017504;28;20021;-74
2022/11/18 12:19:13;;;;;;;27.23;26.23;;;9.00;99.90;;;;;;5030535;28;20021;-73
2022/11/18 12:21:44;;;;;;;25.55;24.20;;;9.10;99.90;;;;;;5023519;28;20113;-73
2022/11/18 12:24:23;;;;;;;29.65;28.55;;;9.10;99.90;;;;;;5033909;28;20551;-72
2022/11/18 12:26:50;;;;;;;27.20;26.20;;;9.20;99.90;;;;;;5033708;28;20017;-73
2022/11/18 12:29:18;;;;;;;26.00;25.00;;;9.10;99.90;;;;;;5020701;28;20026;-73
2022/11/18 12:31:58;;;;;;;29.17;28.00;;;9.20;99.90;;;;;;5023629;28;20030;-73
2022/11/18 12:34:24;;;;;;;25.50;24.50;;;9.20;99.90;;;;;;5031968;28;20055;-71
2022/11/18 12:36:50;;;;;;;24.27;23.38;;;9.10;99.90;;;;;;5033044;28;20471;-71
2022/11/18 12:39:24;;;;;;;25.85;24.88;;;9.20;99.90;;;;;;5033816;28;20080;-71
2022/11/18 12:44:43;;;;;;;28.42;27.23;;;9.10;99.90;;;;;;5034252;28;20103;-72
2022/11/18 12:47:13;;;;;;;29.33;28.13;;;9.00;99.90;;;;;;5033221;28;20037;-74
2022/11/18 12:49:44;;;;;;;27.92;26.83;;;9.00;99.90;;;;;;5031295;28;20083;-71
2022/11/18 12:52:28;;;;;;;26.50;25.50;;;8.90;99.90;;;;;;5032049;28;20096;-71
2022/11/18 12:54:56;;;;;;;25.58;24.67;;;8.90;99.90;;;;;;5027922;28;20075;-71
2022/11/18 12:57:33;;;;;;;26.95;25.95;;;9.00;99.90;;;;;;5032927;28;20044;-71
2022/11/18 13:00:22;;;;;;;27.85;26.80;;;9.00;99.90;;;;;;5033672;28;20049;-71
2022/11/18 13:02:52;;;;;;;26.45;25.42;;;9.00;99.90;;;;;;5020580;28;20601;-71
2022/11/18 13:05:23;;;;;;;26.08;24.65;;;9.00;99.90;;;;;;5032686;28;20458;-74
2022/11/18 13:10:44;;;;;;;25.10;24.20;;;9.00;99.90;;;;;;5028597;28;20032;-74
2022/11/18 13:13:27;;;;;;;23.70;22.80;;;9.10;99.90;;;;;;5011027;28;20033;-73
2022/11/18 13:18:51;;;;;;;24.27;23.38;;;9.00;99.90;;;;;;5018701;28;20109;-73
2022/11/18 13:24:25;;;;;;;29.67;28.23;;;9.00;99.90;;;;;;4971453;28;20693;-74
2022/11/18 13:26:56;;;;;;;25.77;24.77;;;9.00;99.90;;;;;;5019871;28;20045;-73